Time;durP1;ratioP1;P1;durP2;ratioP2;P2;SDS_P1;SDS_P2;PMS_P1;PMS_P2;Temp;Humidity;BMP_temperature;BMP_pressure;BME280_temperature;BME280_humidity;BME280_pressure;Samples;Min_cycle;Max_cycle;Signal;HPM_P1;HPM_P2
2023/05/30 00:00:29;;;;;;;12.68;4.32;;;;;;;8.66;98.48;102571.91;1007841;29;20899;-86
2023/05/30 00:01:01;;;;;;;12.30;3.05;;;;;;;8.66;98.48;102571.91;1012119;29;20726;-86
2023/05/30 00:01:32;;;;;;;10.55;2.30;;;;;;;8.66;98.51;102566.59;1015983;29;20362;-86
2023/05/30 00:02:04;;;;;;;18.40;3.30;;;;;;;8.64;98.68;102573.91;1011666;29;20323;-86
2023/05/30 00:02:36;;;;;;;13.50;2.80;;;;;;;8.63;98.59;102570.41;1006938;29;20664;-86
2023/05/30 00:03:08;;;;;;;15.57;3.30;;;;;;;8.71;98.52;102571.44;1015531;29;20312;-86
2023/05/30 00:03:44;;;;;;;10.63;2.47;;;;;;;8.70;98.67;102561.78;1015449;29;20304;-86
2023/05/30 00:04:17;;;;;;;9.95;2.47;;;;;;;8.68;98.31;102567.28;1011672;29;20321;-86
2023/05/30 00:04:49;;;;;;;11.45;2.90;;;;;;;8.66;98.24;102566.59;1011301;29;20796;-86
2023/05/30 00:05:20;;;;;;;10.77;2.78;;;;;;;8.57;98.65;102562.25;1007665;29;20305;-86
2023/05/30 00:05:52;;;;;;;8.20;2.67;;;;;;;8.51;98.32;102569.06;1007816;29;20373;-86
2023/05/30 00:06:24;;;;;;;9.35;2.47;;;;;;;8.55;98.34;102564.25;1008139;29;20317;-86
2023/05/30 00:06:56;;;;;;;9.05;3.85;;;;;;;8.58;98.63;102564.75;1011359;29;20696;-86
2023/05/30 00:07:27;;;;;;;10.02;4.00;;;;;;;8.62;98.01;102573.22;1011597;29;20821;-86
2023/05/30 00:07:59;;;;;;;9.07;3.05;;;;;;;8.63;98.16;102572.25;1011362;29;20630;-86
2023/05/30 00:08:31;;;;;;;5.82;2.33;;;;;;;8.63;98.40;102564.28;1011241;29;20345;-86
2023/05/30 00:09:03;;;;;;;8.43;2.97;;;;;;;8.55;98.13;102561.59;1012058;29;20400;-86
2023/05/30 00:09:35;;;;;;;9.63;2.45;;;;;;;8.58;98.96;102564.75;1015308;29;20319;-86
2023/05/30 00:10:07;;;;;;;9.10;3.05;;;;;;;8.59;98.84;102565.59;1014957;29;20434;-86
2023/05/30 00:10:38;;;;;;;7.85;3.08;;;;;;;8.63;98.39;102572.25;1014885;29;20311;-86
2023/05/30 00:11:13;;;;;;;12.80;2.85;;;;;;;8.62;98.64;102559.94;1016090;29;20307;-86
2023/05/30 00:11:45;;;;;;;10.80;3.60;;;;;;;8.62;98.19;102560.78;1019272;29;20307;-86
2023/05/30 00:12:17;;;;;;;9.25;2.92;;;;;;;8.60;98.16;102557.47;1019160;29;20668;-86
2023/05/30 00:12:49;;;;;;;9.00;2.55;;;;;;;8.55;97.91;102565.09;1015121;29;20332;-86
2023/05/30 00:13:21;;;;;;;9.68;2.47;;;;;;;8.59;98.16;102560.28;1013323;29;20297;-86
2023/05/30 00:13:52;;;;;;;13.13;2.88;;;;;;;8.54;97.90;102558.09;1015222;29;20312;-86
2023/05/30 00:14:26;;;;;;;14.25;3.88;;;;;;;8.55;98.18;102553.63;1010721;29;21119;-86
2023/05/30 00:14:59;;;;;;;12.38;2.90;;;;;;;8.54;98.06;102559.94;1011661;29;20328;-86
2023/05/30 00:15:31;;;;;;;18.98;3.53;;;;;;;8.54;98.51;102559.94;1011253;29;20301;-86
2023/05/30 00:16:03;;;;;;;21.58;3.63;;;;;;;8.59;98.43;102554.97;1011322;29;20300;-86
2023/05/30 00:16:35;;;;;;;19.50;3.72;;;;;;;8.58;98.14;102561.28;1007877;29;20332;-86
2023/05/30 00:17:07;;;;;;;20.75;3.35;;;;;;;8.56;98.44;102560.59;1007871;29;20320;-86
2023/05/30 00:17:39;;;;;;;11.52;2.88;;;;;;;8.55;98.57;102564.25;1007551;29;20407;-86
2023/05/30 00:18:11;;;;;;;15.20;3.08;;;;;;;8.59;98.88;102554.97;1008379;29;20310;-86
2023/05/30 00:18:43;;;;;;;14.07;3.63;;;;;;;8.59;98.38;102565.59;1012220;29;20309;-86
2023/05/30 00:19:15;;;;;;;13.30;3.55;;;;;;;8.63;98.47;102556.31;1014576;29;20847;-86
2023/05/30 00:19:46;;;;;;;10.88;2.97;;;;;;;8.57;98.87;102560.44;1011537;29;20300;-86
2023/05/30 00:20:22;;;;;;;13.23;3.08;;;;;;;8.55;98.80;102558.94;1003750;29;20306;-86
2023/05/30 00:20:54;;;;;;;11.85;2.72;;;;;;;8.54;98.37;102562.59;1006061;29;20382;-86
2023/05/30 00:21:27;;;;;;;12.23;3.13;;;;;;;8.54;99.11;102562.59;1007596;29;20320;-86
2023/05/30 00:21:59;;;;;;;14.43;3.55;;;;;;;8.56;98.74;102565.91;1008749;29;20309;-85
2023/05/30 00:22:31;;;;;;;8.57;2.47;;;;;;;8.56;98.50;102560.59;1011704;29;20787;-86
2023/05/30 00:23:02;;;;;;;17.60;5.72;;;;;;;8.52;98.29;102562.75;1010679;29;20392;-85
2023/05/30 00:23:35;;;;;;;16.60;4.60;;;;;;;8.52;98.51;102564.56;1019252;29;20790;-86
2023/05/30 00:24:07;;;;;;;15.88;4.28;;;;;;;8.55;98.99;102564.25;1018689;29;20815;-86
2023/05/30 00:24:39;;;;;;;10.80;3.17;;;;;;;8.51;98.91;102563.75;1011292;29;20305;-86
2023/05/30 00:25:11;;;;;;;11.57;2.92;;;;;;;8.47;98.71;102564.19;1011486;29;20352;-86
2023/05/30 00:25:45;;;;;;;8.50;2.80;;;;;;;8.52;99.45;102567.22;1007628;29;20309;-86
2023/05/30 00:26:17;;;;;;;13.18;3.20;;;;;;;8.55;98.80;102569.56;1011499;29;20306;-86
2023/05/30 00:26:55;;;;;;;13.57;3.45;;;;;;;8.51;99.69;102562.91;1010033;29;20396;-86
2023/05/30 00:27:27;;;;;;;12.07;2.97;;;;;;;8.57;99.61;102562.25;1011041;29;20401;-86
2023/05/30 00:27:59;;;;;;;7.78;3.25;;;;;;;8.53;99.73;102568.91;1011263;29;20684;-86
2023/05/30 00:28:30;;;;;;;7.15;2.88;;;;;;;8.53;99.26;102564.41;1004149;29;20858;-86
2023/05/30 00:29:03;;;;;;;6.72;2.90;;;;;;;8.56;100.00;102565.91;1015756;29;20867;-86
2023/05/30 00:29:34;;;;;;;11.85;3.63;;;;;;;8.59;99.72;102568.25;1011801;29;20308;-86
2023/05/30 00:30:07;;;;;;;15.43;3.90;;;;;;;8.49;99.24;102567.53;1007954;29;20297;-86
2023/05/30 00:30:38;;;;;;;11.65;3.90;;;;;;;8.56;99.89;102572.06;1004320;29;20306;-86
2023/05/30 00:31:10;;;;;;;14.73;3.85;;;;;;;8.54;99.76;102567.91;1011885;29;20305;-86
2023/05/30 00:31:41;;;;;;;9.38;3.53;;;;;;;8.56;99.37;102568.56;1011803;29;20886;-86
2023/05/30 00:32:13;;;;;;;10.80;2.85;;;;;;;8.52;99.06;102570.72;1012408;29;20305;-86
2023/05/30 00:32:45;;;;;;;13.73;5.85;;;;;;;8.49;99.68;102570.19;1015909;29;20791;-86
2023/05/30 00:33:17;;;;;;;9.02;2.55;;;;;;;8.50;99.55;102571.88;1011720;29;20883;-86
2023/05/30 00:33:51;;;;;;;13.75;3.97;;;;;;;8.53;99.78;102571.56;1007985;29;20301;-86
2023/05/30 00:34:23;;;;;;;9.95;4.00;;;;;;;8.58;99.81;102572.72;1011795;29;20307;-86
2023/05/30 00:34:55;;;;;;;13.38;3.17;;;;;;;8.61;99.65;102568.91;1011824;29;20747;-86
2023/05/30 00:35:26;;;;;;;12.15;4.00;;;;;;;8.52;99.51;102577.84;1011836;29;20429;-86
2023/05/30 00:35:58;;;;;;;9.75;2.95;;;;;;;8.57;100.00;102572.88;1011909;29;20300;-86
2023/05/30 00:36:31;;;;;;;10.95;3.17;;;;;;;8.61;99.71;102576.88;1004544;29;20310;-86
2023/05/30 00:37:02;;;;;;;12.73;3.38;;;;;;;8.54;99.91;102575.88;1007733;29;20388;-86
2023/05/30 00:37:37;;;;;;;9.77;2.85;;;;;;;8.52;100.00;102572.53;1007938;29;20309;-86
2023/05/30 00:38:08;;;;;;;8.65;4.10;;;;;;;8.57;100.00;102578.19;1011510;29;20828;-86
2023/05/30 00:38:41;;;;;;;12.77;3.17;;;;;;;8.58;99.68;102574.56;1011656;29;20309;-86
2023/05/30 00:39:13;;;;;;;12.25;3.25;;;;;;;8.59;99.75;102578.88;1007616;29;20679;-86
2023/05/30 00:39:46;;;;;;;12.85;3.53;;;;;;;8.47;99.63;102572.16;1015283;29;20313;-86
2023/05/30 00:40:17;;;;;;;14.88;3.28;;;;;;;8.40;100.00;102571.97;1011894;29;20308;-86
2023/05/30 00:40:49;;;;;;;12.68;3.92;;;;;;;8.34;100.00;102568.13;1011878;29;20815;-86
2023/05/30 00:41:21;;;;;;;13.52;3.10;;;;;;;8.32;100.00;102570.09;1011799;29;20308;-86
2023/05/30 00:41:53;;;;;;;7.78;2.83;;;;;;;8.25;100.00;102571.72;1011895;29;20297;-86
2023/05/30 00:42:27;;;;;;;8.55;2.53;;;;;;;8.18;100.00;102573.31;1011776;29;20342;-86
2023/05/30 00:42:59;;;;;;;7.57;3.50;;;;;;;8.04;100.00;102572.09;1011834;29;20313;-86
2023/05/30 00:43:30;;;;;;;13.32;3.33;;;;;;;8.01;100.00;102569.75;1010734;29;20308;-86
2023/05/30 00:44:03;;;;;;;15.40;3.40;;;;;;;8.03;100.00;102570.44;1019633;29;20313;-86
2023/05/30 00:44:35;;;;;;;10.13;3.58;;;;;;;8.07;100.00;102570.97;1009274;29;20725;-86
2023/05/30 00:45:07;;;;;;;12.15;3.38;;;;;;;8.11;100.00;102572.31;1011889;29;20313;-86
2023/05/30 00:45:39;;;;;;;10.73;3.13;;;;;;;8.18;100.00;102567.19;1010398;29;20310;-86
2023/05/30 00:46:11;;;;;;;16.83;4.68;;;;;;;8.19;100.00;102569.69;1017577;29;20799;-86
2023/05/30 00:46:43;;;;;;;12.23;3.45;;;;;;;8.21;100.00;102566.88;1011817;29;20316;-86
2023/05/30 00:47:16;;;;;;;11.40;2.83;;;;;;;8.26;100.00;102570.75;1012028;29;20305;-86
2023/05/30 00:47:50;;;;;;;6.28;2.75;;;;;;;8.25;100.00;102569.06;1012364;29;20315;-86
2023/05/30 00:48:23;;;;;;;10.70;3.33;;;;;;;8.35;100.00;102571.63;1014575;29;20301;-86
2023/05/30 00:48:56;;;;;;;8.18;3.50;;;;;;;8.36;100.00;102571.47;1019223;29;20318;-86
2023/05/30 00:49:27;;;;;;;9.68;4.68;;;;;;;8.35;100.00;102580.44;1016373;29;20306;-86
2023/05/30 00:49:59;;;;;;;10.48;3.58;;;;;;;8.44;100.00;102583.09;1012513;29;20360;-86
2023/05/30 00:50:32;;;;;;;12.85;4.00;;;;;;;8.40;100.00;102577.28;1008619;29;20792;-86
2023/05/30 00:51:08;;;;;;;9.75;3.25;;;;;;;8.41;100.00;102572.81;1012597;29;20305;-86
2023/05/30 00:51:40;;;;;;;10.38;2.88;;;;;;;8.47;100.00;102577.47;1012540;29;20301;-85
2023/05/30 00:52:12;;;;;;;77.57;12.88;;;;;;;8.46;100.00;102578.47;1012447;29;20347;-86
2023/05/30 00:52:45;;;;;;;37.20;6.15;;;;;;;8.47;100.00;102572.16;1014332;29;20308;-85
2023/05/30 00:53:18;;;;;;;74.55;9.38;;;;;;;8.52;100.00;102577.84;1009013;29;20817;-86
2023/05/30 00:53:50;;;;;;;55.85;9.43;;;;;;;8.59;100.00;102577.03;1004780;29;20298;-86
2023/05/30 00:54:22;;;;;;;80.63;10.45;;;;;;;8.50;100.00;102574.53;1005775;29;20294;-86
2023/05/30 00:54:55;;;;;;;74.57;9.70;;;;;;;8.48;100.00;102574.66;1009422;29;20312;-86
2023/05/30 00:55:27;;;;;;;42.85;5.43;;;;;;;8.52;100.00;102576.03;1012655;29;21542;-86
2023/05/30 00:55:59;;;;;;;48.50;7.07;;;;;;;8.47;100.00;102572.16;1010134;29;20301;-86
2023/05/30 00:56:31;;;;;;;39.35;6.45;;;;;;;8.36;100.00;102571.47;1016305;29;20785;-86
2023/05/30 00:57:03;;;;;;;55.30;7.05;;;;;;;8.40;100.00;102576.47;1012571;29;20305;-86
2023/05/30 00:57:36;;;;;;;42.25;7.28;;;;;;;8.42;100.00;102582.44;1016270;29;20300;-86
2023/05/30 00:58:08;;;;;;;19.92;4.60;;;;;;;8.49;100.00;102578.16;1012539;29;20308;-86
2023/05/30 00:58:39;;;;;;;25.58;6.03;;;;;;;8.48;100.00;102573.81;1012344;29;20793;-86
2023/05/30 00:59:11;;;;;;;30.02;5.05;;;;;;;8.49;100.00;102572.84;1008533;29;20297;-86
2023/05/30 00:59:43;;;;;;;12.85;4.20;;;;;;;8.54;100.00;102578.53;1012105;29;20305;-86
2023/05/30 01:00:15;;;;;;;18.65;4.25;;;;;;;8.47;100.00;102573.00;1008422;29;20783;-86
2023/05/30 01:00:48;;;;;;;11.43;5.25;;;;;;;8.55;100.00;102577.53;1008467;29;20844;-85
2023/05/30 01:01:20;;;;;;;16.77;3.88;;;;;;;8.61;100.00;102568.91;1016764;29;20302;-86
2023/05/30 01:01:52;;;;;;;11.18;3.30;;;;;;;8.65;100.00;102567.59;1019367;29;20307;-86
2023/05/30 01:02:25;;;;;;;6.90;2.83;;;;;;;8.62;100.00;102574.06;1014078;29;20387;-86
2023/05/30 01:02:59;;;;;;;11.27;3.47;;;;;;;8.58;100.00;102579.88;1004814;29;20310;-86
2023/05/30 01:03:34;;;;;;;16.67;3.55;;;;;;;8.59;100.00;102573.56;1008640;29;20310;-86
2023/05/30 01:04:08;;;;;;;10.68;3.40;;;;;;;8.61;100.00;102574.22;1010896;29;20421;-86
2023/05/30 01:04:40;;;;;;;9.90;2.80;;;;;;;8.68;100.00;102577.91;1013736;29;20301;-86
2023/05/30 01:05:14;;;;;;;12.68;3.45;;;;;;;8.59;100.00;102577.03;1011751;29;20371;-86
2023/05/30 01:05:46;;;;;;;12.70;3.97;;;;;;;8.56;100.00;102577.38;1007315;29;20360;-86
2023/05/30 01:06:20;;;;;;;9.75;3.08;;;;;;;8.64;100.00;102573.91;1007504;29;20385;-86
2023/05/30 01:06:51;;;;;;;11.40;3.63;;;;;;;8.67;100.00;102578.88;1012489;29;20340;-86
2023/05/30 01:07:23;;;;;;;8.75;3.55;;;;;;;8.68;100.00;102575.25;1011428;29;20881;-86
2023/05/30 01:07:55;;;;;;;16.63;4.35;;;;;;;8.71;100.00;102571.44;1012552;29;20773;-86
2023/05/30 01:08:27;;;;;;;13.63;3.38;;;;;;;8.78;100.00;102575.13;1012512;29;20966;-86
2023/05/30 01:09:03;;;;;;;12.43;4.03;;;;;;;8.85;100.00;102571.66;1012359;29;20311;-86
2023/05/30 01:09:37;;;;;;;15.85;4.30;;;;;;;8.87;100.00;102561.69;1013277;29;20388;-85
2023/05/30 01:10:10;;;;;;;12.55;3.67;;;;;;;8.90;100.00;102569.34;1012503;29;20311;-86
2023/05/30 01:10:43;;;;;;;12.05;4.32;;;;;;;8.88;100.00;102568.66;1008575;29;20458;-86
2023/05/30 01:11:26;;;;;;;9.00;3.05;;;;;;;8.89;100.00;102570.31;1013453;29;20296;-86
2023/05/30 01:12:33;;;;;;;11.80;3.70;;;;;;;8.92;100.00;102572.66;1016595;29;20296;-86
2023/05/30 01:13:20;;;;;;;10.90;2.97;;;;;;;8.91;100.00;102576.31;1015230;29;20312;-86
2023/05/30 01:14:06;;;;;;;11.48;2.72;;;;;;;8.96;100.00;102573.16;1008669;29;20305;-86
2023/05/30 01:14:57;;;;;;;11.60;3.28;;;;;;;8.96;100.00;102567.84;1011424;29;20795;-86
2023/05/30 01:15:32;;;;;;;11.55;3.25;;;;;;;9.00;100.00;102563.84;1010796;29;20366;-86
2023/05/30 01:16:08;;;;;;;7.75;3.17;;;;;;;9.01;100.00;102570.00;1012485;29;20530;-86
2023/05/30 01:16:44;;;;;;;15.00;3.70;;;;;;;9.05;100.00;102563.41;1008590;29;20301;-85
2023/05/30 01:17:23;;;;;;;6.97;3.50;;;;;;;9.07;100.00;102566.72;1010240;29;20806;-86
2023/05/30 01:18:12;;;;;;;8.88;2.92;;;;;;;9.08;100.00;102563.91;1012651;29;20424;-86
2023/05/30 01:18:48;;;;;;;11.38;4.25;;;;;;;9.07;100.00;102564.06;1012296;29;20304;-86
2023/05/30 01:19:32;;;;;;;11.50;3.50;;;;;;;9.04;99.85;102559.03;1018784;29;20311;-86
2023/05/30 01:20:10;;;;;;;18.73;4.55;;;;;;;9.01;99.92;102557.53;1020042;29;20307;-86
2023/05/30 01:20:46;;;;;;;8.90;2.70;;;;;;;9.06;100.00;102568.53;1016333;29;20292;-86
2023/05/30 01:21:21;;;;;;;11.98;3.78;;;;;;;9.08;100.00;102560.41;1012449;29;20876;-86
2023/05/30 01:22:01;;;;;;;10.88;3.13;;;;;;;9.07;100.00;102569.38;1012171;29;20333;-86
2023/05/30 01:22:36;;;;;;;7.50;2.85;;;;;;;9.06;100.00;102565.06;1004646;29;20385;-86
2023/05/30 01:23:32;;;;;;;17.33;4.22;;;;;;;9.06;100.00;102565.88;1008449;29;20301;-86
2023/05/30 01:24:31;;;;;;;11.82;3.65;;;;;;;9.13;100.00;102563.41;1008608;29;20293;-86
2023/05/30 01:25:22;;;;;;;13.13;3.25;;;;;;;9.19;100.00;102562.72;1016116;29;20296;-86
2023/05/30 01:26:12;;;;;;;14.27;3.50;;;;;;;9.24;99.80;102563.06;1016269;29;20836;-86
2023/05/30 01:27:06;;;;;;;14.07;3.28;;;;;;;9.22;99.44;102573.03;1016364;29;20595;-86
2023/05/30 01:28:06;;;;;;;9.65;2.75;;;;;;;9.30;99.24;102559.72;1016529;29;20792;-86
2023/05/30 01:28:38;;;;;;;12.95;4.13;;;;;;;9.22;98.73;102565.06;1019788;29;20343;-86
2023/05/30 01:29:18;;;;;;;16.95;3.65;;;;;;;9.20;99.18;102572.38;1014110;29;20449;-86
2023/05/30 01:29:50;;;;;;;11.88;3.03;;;;;;;9.15;100.00;102569.38;1006602;29;20672;-86
2023/05/30 01:30:24;;;;;;;8.65;3.22;;;;;;;9.18;100.00;102564.56;1010728;29;20313;-86
2023/05/30 01:30:56;;;;;;;14.90;3.60;;;;;;;9.22;100.00;102571.22;1016123;29;20296;-87
2023/05/30 01:31:30;;;;;;;13.05;3.88;;;;;;;9.23;100.00;102574.69;1016375;29;20312;-86
2023/05/30 01:32:04;;;;;;;9.02;2.97;;;;;;;9.21;99.93;102574.03;1012441;29;20312;-86
2023/05/30 01:32:36;;;;;;;11.13;3.53;;;;;;;9.23;99.90;102574.69;1007423;29;20310;-86
2023/05/30 01:33:08;;;;;;;11.35;3.55;;;;;;;9.18;99.64;102577.03;1016142;29;20310;-86
2023/05/30 01:33:41;;;;;;;17.77;4.35;;;;;;;9.21;99.33;102572.19;1010843;29;20312;-86
2023/05/30 01:34:14;;;;;;;17.63;5.65;;;;;;;9.22;100.00;102573.88;1008373;29;20317;-86
2023/05/30 01:34:48;;;;;;;11.40;3.88;;;;;;;9.23;100.00;102580.00;1010984;29;20387;-86
2023/05/30 01:35:23;;;;;;;9.02;3.70;;;;;;;9.25;99.71;102581.50;1013419;29;20312;-86
2023/05/30 01:35:55;;;;;;;16.65;5.22;;;;;;;9.21;99.56;102576.69;1012061;29;20842;-86
2023/05/30 01:36:28;;;;;;;10.50;3.67;;;;;;;9.28;98.88;102578.53;1012516;29;20305;-86
2023/05/30 01:37:00;;;;;;;11.30;2.90;;;;;;;9.30;98.89;102578.34;1008337;29;20313;-86
2023/05/30 01:37:31;;;;;;;8.23;3.55;;;;;;;9.31;98.44;102580.00;1016277;29;20332;-86
2023/05/30 01:38:03;;;;;;;11.98;3.38;;;;;;;9.30;99.07;102578.34;1008532;29;20313;-86
2023/05/30 01:38:37;;;;;;;13.07;3.25;;;;;;;9.34;98.37;102579.72;1016039;29;20684;-86
2023/05/30 01:39:09;;;;;;;8.38;4.60;;;;;;;9.37;98.25;102575.88;1012256;29;20352;-86
2023/05/30 01:39:41;;;;;;;11.85;4.53;;;;;;;9.25;98.26;102572.69;1012314;29;20327;-86
2023/05/30 01:40:19;;;;;;;11.95;4.18;;;;;;;9.23;99.18;102575.53;1012544;29;20304;-86
2023/05/30 01:40:58;;;;;;;13.10;3.90;;;;;;;9.25;100.00;102578.03;1010766;29;20317;-85
2023/05/30 01:41:39;;;;;;;13.35;3.95;;;;;;;9.21;100.00;102582.00;1012437;29;20308;-86
2023/05/30 01:42:25;;;;;;;13.25;3.45;;;;;;;9.18;100.00;102577.03;1014363;29;20312;-86
2023/05/30 01:43:36;;;;;;;10.07;3.72;;;;;;;9.28;100.00;102577.69;1011036;29;20863;-86
2023/05/30 01:44:28;;;;;;;21.23;3.28;;;;;;;9.34;100.00;102577.06;1011419;29;20399;-86
2023/05/30 01:45:09;;;;;;;9.05;3.17;;;;;;;9.33;100.00;102571.91;1016088;29;20378;-86
2023/05/30 01:45:55;;;;;;;9.48;4.03;;;;;;;9.36;100.00;102577.72;1016198;29;20807;-86
2023/05/30 01:46:31;;;;;;;15.32;3.58;;;;;;;9.40;100.00;102581.69;1010224;29;20504;-85
2023/05/30 01:47:13;;;;;;;10.13;3.50;;;;;;;9.32;100.00;102575.56;1012392;29;20300;-85
2023/05/30 01:48:34;;;;;;;19.60;4.65;;;;;;;9.19;100.00;102578.69;1012508;29;20301;-86
2023/05/30 01:49:08;;;;;;;16.45;5.60;;;;;;;9.24;100.00;102581.69;1020212;29;20304;-86
2023/05/30 01:49:59;;;;;;;16.85;5.22;;;;;;;9.19;100.00;102584.00;1016061;29;20300;-86
2023/05/30 01:50:37;;;;;;;9.40;3.10;;;;;;;9.19;100.00;102582.19;1013829;29;20391;-86
2023/05/30 01:51:12;;;;;;;7.38;3.90;;;;;;;9.28;100.00;102583.00;1009969;29;20865;-86
2023/05/30 01:51:48;;;;;;;9.93;3.90;;;;;;;9.27;100.00;102581.34;1016069;29;20315;-86
2023/05/30 01:52:21;;;;;;;15.63;4.03;;;;;;;9.26;100.00;102582.34;1008318;29;20306;-86
2023/05/30 01:52:58;;;;;;;13.95;3.55;;;;;;;9.35;100.00;102584.03;1000728;29;20807;-86
2023/05/30 01:53:34;;;;;;;12.52;3.38;;;;;;;9.33;100.00;102580.72;1004458;29;20833;-86
2023/05/30 01:54:07;;;;;;;11.00;3.00;;;;;;;9.34;99.67;102586.84;1008082;29;20437;-86
2023/05/30 01:54:41;;;;;;;14.23;4.60;;;;;;;9.38;99.39;102577.53;1008313;29;20406;-86
2023/05/30 01:55:14;;;;;;;11.73;3.35;;;;;;;9.39;99.05;102582.69;1006940;29;20301;-86
2023/05/30 01:55:46;;;;;;;13.25;4.15;;;;;;;9.38;98.95;102577.53;1010426;29;20301;-86
2023/05/30 01:56:18;;;;;;;17.70;4.07;;;;;;;9.35;98.56;102576.06;1008344;29;20462;-86
2023/05/30 01:56:54;;;;;;;12.15;3.60;;;;;;;9.38;98.04;102582.88;1008257;29;20310;-86
2023/05/30 01:57:27;;;;;;;12.52;3.83;;;;;;;9.36;98.98;102584.88;1010266;29;20312;-86
2023/05/30 01:57:59;;;;;;;11.82;3.60;;;;;;;9.28;99.20;102583.84;1014102;29;20846;-86
2023/05/30 01:58:34;;;;;;;11.30;4.57;;;;;;;9.27;99.92;102586.66;1011663;29;20851;-86
2023/05/30 01:59:08;;;;;;;13.05;4.57;;;;;;;9.19;100.00;102586.66;1012021;29;20820;-86
2023/05/30 01:59:40;;;;;;;12.93;4.65;;;;;;;9.24;100.00;102587.00;1012033;29;20311;-85
2023/05/30 02:00:14;;;;;;;12.10;4.20;;;;;;;9.26;100.00;102592.97;1012152;29;20353;-86
2023/05/30 02:00:49;;;;;;;9.43;4.13;;;;;;;9.26;100.00;102588.50;1011122;29;20315;-86
2023/05/30 02:01:24;;;;;;;13.27;3.65;;;;;;;9.32;100.00;102594.16;1009678;29;20309;-86
2023/05/30 02:01:57;;;;;;;8.95;3.58;;;;;;;9.39;100.00;102595.16;1010060;29;20309;-86
2023/05/30 02:02:28;;;;;;;10.35;4.60;;;;;;;9.35;100.00;102592.00;1006276;29;20715;-86
2023/05/30 02:03:00;;;;;;;13.18;3.70;;;;;;;9.35;100.00;102591.19;1011623;29;20353;-86
2023/05/30 02:03:32;;;;;;;12.82;4.50;;;;;;;9.47;100.00;102593.34;1007096;29;20348;-86
2023/05/30 02:04:04;;;;;;;17.20;5.53;;;;;;;9.39;99.33;102598.66;1012223;29;20313;-85
2023/05/30 02:04:37;;;;;;;13.73;4.00;;;;;;;9.37;99.55;102592.66;1016172;29;20312;-85
2023/05/30 02:05:08;;;;;;;9.85;3.47;;;;;;;9.40;98.89;102600.31;1016091;29;20854;-85
2023/05/30 02:05:40;;;;;;;15.13;4.70;;;;;;;9.41;98.94;102599.31;1016254;29;20312;-86
2023/05/30 02:06:12;;;;;;;13.77;3.67;;;;;;;9.36;98.76;102599.00;1013912;29;20312;-85
2023/05/30 02:06:43;;;;;;;13.63;4.68;;;;;;;9.39;98.93;102596.00;1004165;29;20316;-86
2023/05/30 02:07:15;;;;;;;13.55;4.60;;;;;;;9.43;98.62;102599.16;1015940;29;20407;-86
2023/05/30 02:07:47;;;;;;;10.82;3.70;;;;;;;9.36;99.17;102590.19;1012334;29;20815;-86
2023/05/30 02:08:19;;;;;;;16.90;4.20;;;;;;;9.46;99.07;102602.31;1016241;29;20311;-86
2023/05/30 02:08:51;;;;;;;11.25;3.90;;;;;;;9.43;99.00;102597.31;1008241;29;20305;-86
2023/05/30 02:09:25;;;;;;;11.70;4.10;;;;;;;9.47;98.58;102597.81;1016179;29;20333;-86
2023/05/30 02:09:56;;;;;;;11.15;4.13;;;;;;;9.44;98.52;102606.97;1012165;29;20357;-86
2023/05/30 02:10:28;;;;;;;12.27;4.57;;;;;;;9.43;98.82;102602.66;1016245;29;20326;-86
2023/05/30 02:11:00;;;;;;;11.77;4.13;;;;;;;9.40;98.68;102592.34;1012263;29;20292;-86
2023/05/30 02:11:31;;;;;;;13.18;5.10;;;;;;;9.45;98.92;102603.31;1010231;29;20810;-86
2023/05/30 02:12:03;;;;;;;8.27;4.40;;;;;;;9.43;98.45;102597.31;1012125;29;20309;-86
2023/05/30 02:12:35;;;;;;;13.27;4.57;;;;;;;9.44;98.39;102598.97;1016237;29;20300;-86
2023/05/30 02:13:06;;;;;;;13.38;4.13;;;;;;;9.41;98.76;102598.50;1016255;29;20408;-86
2023/05/30 02:13:38;;;;;;;14.02;4.88;;;;;;;9.37;98.05;102598.00;1008367;29;20390;-86
2023/05/30 02:14:10;;;;;;;10.75;3.65;;;;;;;9.37;99.03;102600.66;1007978;29;20313;-86
2023/05/30 02:14:43;;;;;;;14.40;4.38;;;;;;;9.37;99.14;102600.66;1008324;29;20677;-85
2023/05/30 02:15:15;;;;;;;14.73;3.85;;;;;;;9.39;98.83;102589.84;1008382;29;20358;-86
2023/05/30 02:15:47;;;;;;;15.07;4.40;;;;;;;9.44;98.84;102598.97;1008154;29;21060;-86
2023/05/30 02:16:18;;;;;;;13.40;4.25;;;;;;;9.46;98.94;102597.00;1008188;29;20393;-86
2023/05/30 02:16:50;;;;;;;16.50;4.15;;;;;;;9.47;98.65;102596.00;1012292;29;20316;-86
2023/05/30 02:17:22;;;;;;;13.55;4.47;;;;;;;9.44;98.69;102600.81;1011819;29;20341;-86
2023/05/30 02:17:54;;;;;;;15.48;4.70;;;;;;;9.46;98.18;102599.66;1012219;29;20321;-86
2023/05/30 02:18:27;;;;;;;17.80;5.10;;;;;;;9.46;98.61;102602.31;1008516;29;20301;-86
2023/05/30 02:19:00;;;;;;;12.20;3.92;;;;;;;9.46;98.92;102601.47;1009030;29;20349;-86
2023/05/30 02:19:31;;;;;;;15.05;4.45;;;;;;;9.46;98.47;102606.81;1009138;29;20316;-86
2023/05/30 02:20:05;;;;;;;13.27;3.80;;;;;;;9.44;98.53;102600.81;1009184;29;20687;-85
2023/05/30 02:20:37;;;;;;;9.75;3.70;;;;;;;9.45;98.17;102600.66;1012209;29;20304;-86
2023/05/30 02:21:12;;;;;;;11.82;4.25;;;;;;;9.47;99.22;102600.47;1008444;29;20316;-86
2023/05/30 02:21:43;;;;;;;10.52;4.22;;;;;;;9.48;99.35;102605.63;1013187;29;20670;-86
2023/05/30 02:22:16;;;;;;;15.05;4.65;;;;;;;9.49;98.86;102599.31;1011814;29;20308;-86
2023/05/30 02:22:48;;;;;;;13.32;5.20;;;;;;;9.50;98.94;102600.16;1010291;29;20372;-86
2023/05/30 02:23:20;;;;;;;12.05;4.72;;;;;;;9.54;98.98;102604.13;1011543;29;20305;-86
2023/05/30 02:23:51;;;;;;;8.82;3.95;;;;;;;9.50;99.10;102603.63;1011884;29;20673;-86
2023/05/30 02:24:23;;;;;;;11.95;4.80;;;;;;;9.50;98.17;102595.66;1012014;29;20323;-86
2023/05/30 02:24:57;;;;;;;11.15;4.72;;;;;;;9.54;98.11;102599.66;1005447;29;20305;-86
2023/05/30 02:25:29;;;;;;;12.43;3.97;;;;;;;9.55;98.12;102593.31;1000368;29;20319;-86
2023/05/30 02:26:00;;;;;;;15.80;4.85;;;;;;;9.53;98.33;102591.84;1001378;29;20803;-86
2023/05/30 02:26:34;;;;;;;15.02;4.43;;;;;;;9.55;97.91;102589.84;1008674;29;20705;-86
2023/05/30 02:27:06;;;;;;;12.05;6.07;;;;;;;9.54;98.11;102589.00;1005018;29;20375;-86
2023/05/30 02:27:38;;;;;;;16.50;5.20;;;;;;;9.49;98.17;102591.34;1008101;29;20302;-86
2023/05/30 02:28:10;;;;;;;8.10;3.78;;;;;;;9.52;98.77;102596.31;1012204;29;20412;-86
2023/05/30 02:28:42;;;;;;;11.40;5.15;;;;;;;9.47;99.08;102598.66;1016084;29;20737;-86
2023/05/30 02:29:13;;;;;;;15.15;3.88;;;;;;;9.54;98.70;102594.31;1012101;29;20319;-86
2023/05/30 02:29:45;;;;;;;9.20;4.57;;;;;;;9.53;98.33;102603.31;1012178;29;20313;-86
2023/05/30 02:30:17;;;;;;;12.20;4.40;;;;;;;9.48;98.21;102600.31;1010000;29;20293;-85
2023/05/30 02:30:49;;;;;;;13.15;5.22;;;;;;;9.46;98.68;102597.00;1011790;29;20304;-86
2023/05/30 02:31:21;;;;;;;12.27;4.57;;;;;;;9.45;99.15;102598.00;1012223;29;20311;-86
2023/05/30 02:31:53;;;;;;;16.02;5.38;;;;;;;9.46;98.60;102601.47;1011914;29;20315;-86
2023/05/30 02:32:25;;;;;;;11.73;4.18;;;;;;;9.47;98.41;102598.66;1011476;29;20689;-86
2023/05/30 02:32:57;;;;;;;13.98;4.72;;;;;;;9.48;98.82;102600.31;1008211;29;20793;-86
2023/05/30 02:33:29;;;;;;;19.38;6.38;;;;;;;9.51;99.41;102597.31;1008336;29;20320;-86
2023/05/30 02:34:01;;;;;;;12.40;5.03;;;;;;;9.53;98.96;102597.97;1008326;29;20305;-86
2023/05/30 02:34:32;;;;;;;15.52;5.32;;;;;;;9.55;98.46;102600.47;1012002;29;20348;-86
2023/05/30 02:35:07;;;;;;;23.58;4.75;;;;;;;9.52;98.88;102601.66;1004155;29;20321;-86
2023/05/30 02:35:38;;;;;;;15.63;4.60;;;;;;;9.51;98.77;102594.66;1004441;29;20826;-85
2023/05/30 02:36:10;;;;;;;11.30;5.28;;;;;;;9.41;99.18;102594.00;1008279;29;20310;-86
2023/05/30 02:36:42;;;;;;;19.75;4.72;;;;;;;9.46;99.45;102597.00;1002473;29;20350;-86
2023/05/30 02:37:14;;;;;;;17.65;4.38;;;;;;;9.51;98.88;102594.66;1004402;29;20400;-86
2023/05/30 02:37:45;;;;;;;19.52;4.88;;;;;;;9.51;99.22;102599.97;1010813;29;20693;-86
2023/05/30 02:38:17;;;;;;;9.75;4.43;;;;;;;9.52;98.99;102595.50;1012198;29;20848;-85
2023/05/30 02:38:51;;;;;;;14.93;5.20;;;;;;;9.50;99.23;102600.97;1012084;29;20316;-86
2023/05/30 02:39:24;;;;;;;11.85;5.05;;;;;;;9.49;99.27;102601.16;1011149;29;20348;-86